Amelia, West Virginia
Current Conditions -  °F | °C
As of 10:54 PM on Tuesday 27 Jan 2015 (Local Time) from KCRW Reporting Station
Light Snow Light Snow  
Wind Chill: 13°   Ceiling: 2900
Heat Index: 22°   Visibility: 7mi
Dew Point: 14°   Wind: 7mph
Humidity: 72%   Direction: 310°NW
Pressure: 30.18"   Gusts: NA
Location:  38.2755°N, 81.3011°W
Report Text: KCRW 280354Z 31006KT 7SM -SN OVC029 M06/M10 A3018 RMK AO2 SLP233 P0000 T10561100
Loading
Personal Weather Stations






























Interactive Weather Map New forecast layout! Learn more

10-Day Weather Forecast

Advertisements
Track Severe Weather on mobile